Airfield :
LOGIN :

Register | Disclaimer

   EN    FR    IT 

 










Legend :    VFR   Marginal VFR   IFR   Intensive IFR   Very Intensive IFR
Visi :
Ceiling :
>= 8 km
>= 3000ft
5 to 8 km
1000 to 3000 ft
1500m to 5 km
500 to 1000 ft
800 to 1500m
200 to 500 ft
< 800m
< 200 ft
Symbols :   Thunderstorms  Fog  Heavy snow  Heavy precipitations  Wind > 20 kt
SIGMETs :     Misc.  Thunderstorms  Icing  Turbulence  Mountain Waves  Volcanic Ashes







- Airport Elevation : 526 ft
- IATA code : LTN
- Download approach charts


EGGW - London Luton

CURRENT METAR :
  • 180720Z AUTO 04009KT 9999 OVC017 09/08 Q1012

EXPIRED METARs :
  • 180650Z AUTO 04008KT 9999 SCT004 OVC018 09/08 Q1012
  • 180620Z AUTO 04007KT 020V110 9999 SCT004 OVC019 09/08 Q1012
  • 180550Z AUTO 03008KT 010V080 9999 FEW005/// OVC020/// //////TCU 09/08 Q1013
  • 180520Z AUTO 04008KT 010V080 9999 OVC021/// //////TCU 09/08 Q1013
  • 180450Z AUTO 05008KT 9999 OVC023/// //////TCU 09/08 Q1013

TAF TAF EGGW
Valid from the 18 at 06:00 until the 19 at 06:00 UTC


180456Z 1806/1906 05006KT 9999 SCT018
TEMPO 1806/1810 8000
BECMG 1807/1810 BKN008
BECMG 1810/1813 6000 BKN004
TEMPO 1810/1818 2000 RADZ BR
PROB40
TEMPO 1812/1906 0800 FG BKN001
TEMPO 1818/1906 2000 BR
ATIS : +44 1582 395 204
No reported NOTAMs for that airfield.



MET'MAP, your aeronautical weather chart ! - Copyright ORBIFLY December 2007 - Disclaimer

ORBIFLY MET'MAP TEAM :

Programming & Development : Alexandra Zaïnal
Concept & Development : Baudouin d'Aumeries
Co-Development & Prog : Marc-Olivier Méhu
Technical & hardware support : Manuel Goepfert

Contact : metmap@orbifly.com




SOURCES & CREDITS :

   NOAA